sensor_id;sensor_type;location;lat;lon;timestamp;P1;durP1;ratioP1;P2;durP2;ratioP2
73729;SDS011;62036;48.128;16.458;2022-12-13T00:03:05;7.85;;;4.28;;
73729;SDS011;62036;48.128;16.458;2022-12-13T00:05:31;7.32;;;3.90;;
73729;SDS011;62036;48.128;16.458;2022-12-13T00:07:58;6.90;;;3.95;;
73729;SDS011;62036;48.128;16.458;2022-12-13T00:10:24;7.30;;;3.78;;
73729;SDS011;62036;48.128;16.458;2022-12-13T00:12:50;7.45;;;3.30;;
73729;SDS011;62036;48.128;16.458;2022-12-13T00:15:16;8.15;;;4.38;;
73729;SDS011;62036;48.128;16.458;2022-12-13T00:20:09;6.05;;;4.05;;
73729;SDS011;62036;48.128;16.458;2022-12-13T00:22:35;8.77;;;3.42;;
73729;SDS011;62036;48.128;16.458;2022-12-13T00:25:02;6.68;;;3.97;;
73729;SDS011;62036;48.128;16.458;2022-12-13T00:27:28;7.40;;;4.10;;
73729;SDS011;62036;48.128;16.458;2022-12-13T00:29:54;7.72;;;4.13;;
73729;SDS011;62036;48.128;16.458;2022-12-13T00:32:20;8.20;;;4.53;;
73729;SDS011;62036;48.128;16.458;2022-12-13T00:34:46;8.13;;;3.53;;
73729;SDS011;62036;48.128;16.458;2022-12-13T00:37:12;11.63;;;5.55;;
73729;SDS011;62036;48.128;16.458;2022-12-13T00:39:38;7.55;;;4.78;;
73729;SDS011;62036;48.128;16.458;2022-12-13T00:42:04;8.10;;;4.47;;
73729;SDS011;62036;48.128;16.458;2022-12-13T00:44:31;7.25;;;3.80;;
73729;SDS011;62036;48.128;16.458;2022-12-13T00:46:57;10.93;;;4.68;;
73729;SDS011;62036;48.128;16.458;2022-12-13T00:49:23;8.55;;;4.15;;
73729;SDS011;62036;48.128;16.458;2022-12-13T00:51:49;8.80;;;3.55;;
73729;SDS011;62036;48.128;16.458;2022-12-13T00:54:18;7.07;;;3.97;;
73729;SDS011;62036;48.128;16.458;2022-12-13T00:56:47;9.55;;;5.93;;
73729;SDS011;62036;48.128;16.458;2022-12-13T00:59:15;9.43;;;5.00;;
73729;SDS011;62036;48.128;16.458;2022-12-13T01:01:44;10.77;;;5.03;;
73729;SDS011;62036;48.128;16.458;2022-12-13T01:04:10;8.07;;;4.53;;
73729;SDS011;62036;48.128;16.458;2022-12-13T01:06:37;11.40;;;5.60;;
73729;SDS011;62036;48.128;16.458;2022-12-13T01:09:04;12.55;;;4.47;;
73729;SDS011;62036;48.128;16.458;2022-12-13T01:11:30;13.60;;;6.03;;
73729;SDS011;62036;48.128;16.458;2022-12-13T01:13:56;10.68;;;5.35;;
73729;SDS011;62036;48.128;16.458;2022-12-13T01:16:25;11.95;;;6.13;;
73729;SDS011;62036;48.128;16.458;2022-12-13T01:18:51;10.05;;;4.30;;
73729;SDS011;62036;48.128;16.458;2022-12-13T01:21:18;6.85;;;3.53;;
73729;SDS011;62036;48.128;16.458;2022-12-13T01:23:47;8.43;;;5.00;;
73729;SDS011;62036;48.128;16.458;2022-12-13T01:28:39;9.73;;;3.75;;
73729;SDS011;62036;48.128;16.458;2022-12-13T01:31:09;12.00;;;4.90;;
73729;SDS011;62036;48.128;16.458;2022-12-13T01:33:36;7.93;;;5.25;;
73729;SDS011;62036;48.128;16.458;2022-12-13T01:36:04;10.60;;;4.50;;
73729;SDS011;62036;48.128;16.458;2022-12-13T01:38:30;11.88;;;5.03;;
73729;SDS011;62036;48.128;16.458;2022-12-13T01:40:56;8.50;;;5.03;;
73729;SDS011;62036;48.128;16.458;2022-12-13T01:43:23;11.40;;;5.05;;
73729;SDS011;62036;48.128;16.458;2022-12-13T01:45:49;8.77;;;5.30;;
73729;SDS011;62036;48.128;16.458;2022-12-13T01:48:17;8.13;;;3.83;;
73729;SDS011;62036;48.128;16.458;2022-12-13T01:50:45;7.43;;;4.15;;
73729;SDS011;62036;48.128;16.458;2022-12-13T01:53:14;10.52;;;4.53;;
73729;SDS011;62036;48.128;16.458;2022-12-13T01:55:45;9.27;;;4.28;;
73729;SDS011;62036;48.128;16.458;2022-12-13T01:58:12;7.28;;;4.43;;
73729;SDS011;62036;48.128;16.458;2022-12-13T02:00:38;8.68;;;5.47;;
73729;SDS011;62036;48.128;16.458;2022-12-13T02:03:05;7.63;;;4.60;;
73729;SDS011;62036;48.128;16.458;2022-12-13T02:05:36;10.25;;;4.95;;
73729;SDS011;62036;48.128;16.458;2022-12-13T02:08:04;11.68;;;5.45;;
73729;SDS011;62036;48.128;16.458;2022-12-13T02:10:30;9.63;;;4.18;;
73729;SDS011;62036;48.128;16.458;2022-12-13T02:13:03;9.30;;;5.05;;
73729;SDS011;62036;48.128;16.458;2022-12-13T02:15:33;12.00;;;5.35;;
73729;SDS011;62036;48.128;16.458;2022-12-13T02:18:08;13.43;;;5.43;;
73729;SDS011;62036;48.128;16.458;2022-12-13T02:25:48;9.70;;;5.35;;
73729;SDS011;62036;48.128;16.458;2022-12-13T02:30:46;10.57;;;4.50;;
73729;SDS011;62036;48.128;16.458;2022-12-13T02:38:26;7.88;;;5.50;;
73729;SDS011;62036;48.128;16.458;2022-12-13T02:44:33;9.32;;;4.28;;
73729;SDS011;62036;48.128;16.458;2022-12-13T02:46:26;11.02;;;5.28;;
73729;SDS011;62036;48.128;16.458;2022-12-13T02:48:53;9.93;;;4.85;;
73729;SDS011;62036;48.128;16.458;2022-12-13T02:51:21;9.68;;;4.30;;
73729;SDS011;62036;48.128;16.458;2022-12-13T02:53:48;8.43;;;4.85;;
73729;SDS011;62036;48.128;16.458;2022-12-13T02:56:14;9.95;;;4.68;;
73729;SDS011;62036;48.128;16.458;2022-12-13T02:58:41;12.00;;;5.20;;
73729;SDS011;62036;48.128;16.458;2022-12-13T03:06:30;9.65;;;4.85;;
73729;SDS011;62036;48.128;16.458;2022-12-13T03:09:12;8.57;;;4.63;;
73729;SDS011;62036;48.128;16.458;2022-12-13T03:11:49;8.27;;;4.78;;
73729;SDS011;62036;48.128;16.458;2022-12-13T03:14:38;8.40;;;5.13;;
73729;SDS011;62036;48.128;16.458;2022-12-13T03:17:06;9.38;;;4.13;;
73729;SDS011;62036;48.128;16.458;2022-12-13T03:19:33;7.95;;;4.05;;
73729;SDS011;62036;48.128;16.458;2022-12-13T03:21:59;12.38;;;6.03;;
73729;SDS011;62036;48.128;16.458;2022-12-13T03:24:25;9.07;;;4.72;;
73729;SDS011;62036;48.128;16.458;2022-12-13T03:26:51;8.27;;;4.53;;
73729;SDS011;62036;48.128;16.458;2022-12-13T03:29:17;10.60;;;4.88;;
73729;SDS011;62036;48.128;16.458;2022-12-13T03:31:43;14.65;;;5.55;;
73729;SDS011;62036;48.128;16.458;2022-12-13T03:34:10;14.85;;;4.63;;
73729;SDS011;62036;48.128;16.458;2022-12-13T03:36:36;8.05;;;5.05;;
73729;SDS011;62036;48.128;16.458;2022-12-13T03:39:02;8.65;;;4.28;;
73729;SDS011;62036;48.128;16.458;2022-12-13T03:41:28;10.40;;;4.60;;
73729;SDS011;62036;48.128;16.458;2022-12-13T03:43:59;9.00;;;4.63;;
73729;SDS011;62036;48.128;16.458;2022-12-13T03:46:25;8.20;;;4.40;;
73729;SDS011;62036;48.128;16.458;2022-12-13T03:48:51;12.63;;;5.03;;
73729;SDS011;62036;48.128;16.458;2022-12-13T03:51:17;10.48;;;4.68;;
73729;SDS011;62036;48.128;16.458;2022-12-13T03:53:43;9.73;;;5.47;;
73729;SDS011;62036;48.128;16.458;2022-12-13T03:56:09;11.10;;;4.20;;
73729;SDS011;62036;48.128;16.458;2022-12-13T03:58:35;12.23;;;5.20;;
73729;SDS011;62036;48.128;16.458;2022-12-13T04:01:01;9.57;;;4.47;;
73729;SDS011;62036;48.128;16.458;2022-12-13T04:03:27;9.48;;;4.45;;
73729;SDS011;62036;48.128;16.458;2022-12-13T04:05:53;8.50;;;5.00;;
73729;SDS011;62036;48.128;16.458;2022-12-13T04:08:19;12.45;;;5.38;;
73729;SDS011;62036;48.128;16.458;2022-12-13T04:10:45;11.88;;;5.10;;
73729;SDS011;62036;48.128;16.458;2022-12-13T04:13:11;9.88;;;4.97;;
73729;SDS011;62036;48.128;16.458;2022-12-13T04:15:56;10.05;;;4.63;;
73729;SDS011;62036;48.128;16.458;2022-12-13T04:18:22;13.27;;;5.63;;
73729;SDS011;62036;48.128;16.458;2022-12-13T04:20:48;9.40;;;5.25;;
73729;SDS011;62036;48.128;16.458;2022-12-13T04:23:14;13.73;;;5.53;;
73729;SDS011;62036;48.128;16.458;2022-12-13T04:25:41;8.23;;;5.13;;
73729;SDS011;62036;48.128;16.458;2022-12-13T04:28:07;10.13;;;4.40;;
73729;SDS011;62036;48.128;16.458;2022-12-13T04:30:34;9.30;;;5.65;;
73729;SDS011;62036;48.128;16.458;2022-12-13T04:33:00;7.88;;;4.35;;
73729;SDS011;62036;48.128;16.458;2022-12-13T04:35:26;10.95;;;6.38;;
73729;SDS011;62036;48.128;16.458;2022-12-13T04:37:52;11.68;;;5.80;;
73729;SDS011;62036;48.128;16.458;2022-12-13T04:40:18;7.93;;;4.40;;
73729;SDS011;62036;48.128;16.458;2022-12-13T04:42:44;10.20;;;4.75;;
73729;SDS011;62036;48.128;16.458;2022-12-13T04:45:14;9.70;;;5.60;;
73729;SDS011;62036;48.128;16.458;2022-12-13T04:47:40;10.65;;;4.30;;
73729;SDS011;62036;48.128;16.458;2022-12-13T04:50:06;8.30;;;4.88;;
73729;SDS011;62036;48.128;16.458;2022-12-13T04:52:32;12.63;;;5.72;;
73729;SDS011;62036;48.128;16.458;2022-12-13T04:57:25;8.65;;;3.75;;
73729;SDS011;62036;48.128;16.458;2022-12-13T04:59:51;7.18;;;4.72;;
73729;SDS011;62036;48.128;16.458;2022-12-13T05:02:17;9.40;;;5.18;;
73729;SDS011;62036;48.128;16.458;2022-12-13T05:04:46;8.85;;;4.90;;
73729;SDS011;62036;48.128;16.458;2022-12-13T05:07:12;11.73;;;6.07;;
73729;SDS011;62036;48.128;16.458;2022-12-13T05:09:38;9.82;;;5.45;;
73729;SDS011;62036;48.128;16.458;2022-12-13T05:12:04;8.95;;;5.07;;
73729;SDS011;62036;48.128;16.458;2022-12-13T05:14:30;10.82;;;5.32;;
73729;SDS011;62036;48.128;16.458;2022-12-13T05:19:22;12.18;;;5.55;;
73729;SDS011;62036;48.128;16.458;2022-12-13T05:21:48;11.25;;;5.60;;
73729;SDS011;62036;48.128;16.458;2022-12-13T05:24:15;13.45;;;5.75;;
73729;SDS011;62036;48.128;16.458;2022-12-13T05:26:41;14.70;;;6.72;;
73729;SDS011;62036;48.128;16.458;2022-12-13T05:29:07;12.20;;;6.00;;
73729;SDS011;62036;48.128;16.458;2022-12-13T05:31:33;9.48;;;5.10;;
73729;SDS011;62036;48.128;16.458;2022-12-13T05:33:59;8.77;;;5.32;;
73729;SDS011;62036;48.128;16.458;2022-12-13T05:36:26;12.60;;;4.47;;
73729;SDS011;62036;48.128;16.458;2022-12-13T05:38:52;9.85;;;5.95;;
73729;SDS011;62036;48.128;16.458;2022-12-13T05:41:19;8.93;;;4.88;;
73729;SDS011;62036;48.128;16.458;2022-12-13T05:43:45;9.68;;;5.28;;
73729;SDS011;62036;48.128;16.458;2022-12-13T05:46:11;15.10;;;6.80;;
73729;SDS011;62036;48.128;16.458;2022-12-13T05:48:37;10.23;;;4.25;;
73729;SDS011;62036;48.128;16.458;2022-12-13T05:51:03;12.63;;;5.15;;
73729;SDS011;62036;48.128;16.458;2022-12-13T05:53:29;11.48;;;5.85;;
73729;SDS011;62036;48.128;16.458;2022-12-13T05:55:59;8.40;;;4.45;;
73729;SDS011;62036;48.128;16.458;2022-12-13T05:58:25;11.55;;;6.90;;
73729;SDS011;62036;48.128;16.458;2022-12-13T06:00:51;7.65;;;4.60;;
73729;SDS011;62036;48.128;16.458;2022-12-13T06:03:17;8.68;;;5.03;;
73729;SDS011;62036;48.128;16.458;2022-12-13T06:05:44;10.52;;;6.38;;
73729;SDS011;62036;48.128;16.458;2022-12-13T06:08:10;9.60;;;5.53;;
73729;SDS011;62036;48.128;16.458;2022-12-13T06:10:36;11.30;;;4.95;;
73729;SDS011;62036;48.128;16.458;2022-12-13T06:15:28;10.20;;;5.45;;
73729;SDS011;62036;48.128;16.458;2022-12-13T06:17:55;5.57;;;4.28;;
73729;SDS011;62036;48.128;16.458;2022-12-13T06:20:23;11.63;;;5.75;;
73729;SDS011;62036;48.128;16.458;2022-12-13T06:22:50;9.50;;;4.90;;
73729;SDS011;62036;48.128;16.458;2022-12-13T06:25:16;9.38;;;5.63;;
73729;SDS011;62036;48.128;16.458;2022-12-13T06:27:42;15.50;;;7.25;;
73729;SDS011;62036;48.128;16.458;2022-12-13T06:32:34;21.52;;;8.68;;
73729;SDS011;62036;48.128;16.458;2022-12-13T06:35:00;13.05;;;6.80;;
73729;SDS011;62036;48.128;16.458;2022-12-13T06:37:26;19.80;;;5.70;;
73729;SDS011;62036;48.128;16.458;2022-12-13T06:39:52;12.43;;;6.95;;
73729;SDS011;62036;48.128;16.458;2022-12-13T06:42:18;10.13;;;5.10;;
73729;SDS011;62036;48.128;16.458;2022-12-13T06:44:44;9.73;;;5.47;;
73729;SDS011;62036;48.128;16.458;2022-12-13T06:47:10;10.63;;;5.35;;
73729;SDS011;62036;48.128;16.458;2022-12-13T06:49:36;14.43;;;6.15;;
73729;SDS011;62036;48.128;16.458;2022-12-13T06:52:02;14.93;;;6.88;;
73729;SDS011;62036;48.128;16.458;2022-12-13T06:54:28;11.63;;;5.18;;
73729;SDS011;62036;48.128;16.458;2022-12-13T06:56:54;12.57;;;5.28;;
73729;SDS011;62036;48.128;16.458;2022-12-13T06:59:20;9.73;;;5.18;;
73729;SDS011;62036;48.128;16.458;2022-12-13T07:01:47;13.93;;;5.57;;
73729;SDS011;62036;48.128;16.458;2022-12-13T07:04:13;7.00;;;4.35;;
73729;SDS011;62036;48.128;16.458;2022-12-13T07:06:39;7.60;;;4.72;;
73729;SDS011;62036;48.128;16.458;2022-12-13T07:09:05;12.90;;;5.00;;
73729;SDS011;62036;48.128;16.458;2022-12-13T07:11:31;14.10;;;5.47;;
73729;SDS011;62036;48.128;16.458;2022-12-13T07:13:58;8.65;;;4.75;;
73729;SDS011;62036;48.128;16.458;2022-12-13T07:16:24;15.35;;;4.88;;
73729;SDS011;62036;48.128;16.458;2022-12-13T07:18:54;10.77;;;5.30;;
73729;SDS011;62036;48.128;16.458;2022-12-13T07:21:21;11.57;;;6.13;;
73729;SDS011;62036;48.128;16.458;2022-12-13T07:23:47;9.55;;;4.90;;
73729;SDS011;62036;48.128;16.458;2022-12-13T07:26:15;8.60;;;5.43;;
73729;SDS011;62036;48.128;16.458;2022-12-13T07:28:41;10.38;;;5.78;;
73729;SDS011;62036;48.128;16.458;2022-12-13T07:31:08;13.25;;;6.18;;
73729;SDS011;62036;48.128;16.458;2022-12-13T07:33:35;14.48;;;4.00;;
73729;SDS011;62036;48.128;16.458;2022-12-13T07:36:05;8.00;;;4.40;;
73729;SDS011;62036;48.128;16.458;2022-12-13T07:38:32;8.77;;;4.65;;
73729;SDS011;62036;48.128;16.458;2022-12-13T07:40:58;7.72;;;3.38;;
73729;SDS011;62036;48.128;16.458;2022-12-13T07:43:24;8.95;;;4.97;;
73729;SDS011;62036;48.128;16.458;2022-12-13T07:45:51;7.30;;;3.50;;
73729;SDS011;62036;48.128;16.458;2022-12-13T07:50:43;5.43;;;2.90;;
73729;SDS011;62036;48.128;16.458;2022-12-13T07:53:09;6.35;;;3.35;;
73729;SDS011;62036;48.128;16.458;2022-12-13T07:55:35;7.15;;;2.72;;
73729;SDS011;62036;48.128;16.458;2022-12-13T07:58:12;7.32;;;2.65;;
73729;SDS011;62036;48.128;16.458;2022-12-13T08:00:38;9.35;;;3.45;;
73729;SDS011;62036;48.128;16.458;2022-12-13T08:03:04;6.35;;;2.88;;
73729;SDS011;62036;48.128;16.458;2022-12-13T08:05:31;5.35;;;3.00;;
73729;SDS011;62036;48.128;16.458;2022-12-13T08:07:58;8.75;;;3.83;;
73729;SDS011;62036;48.128;16.458;2022-12-13T08:10:24;6.13;;;4.03;;
73729;SDS011;62036;48.128;16.458;2022-12-13T08:12:50;7.13;;;3.75;;
73729;SDS011;62036;48.128;16.458;2022-12-13T08:15:17;10.70;;;3.53;;
73729;SDS011;62036;48.128;16.458;2022-12-13T08:17:43;7.57;;;4.13;;
73729;SDS011;62036;48.128;16.458;2022-12-13T08:20:09;4.68;;;2.53;;
73729;SDS011;62036;48.128;16.458;2022-12-13T08:22:35;6.70;;;3.50;;
73729;SDS011;62036;48.128;16.458;2022-12-13T08:25:02;7.10;;;3.05;;
73729;SDS011;62036;48.128;16.458;2022-12-13T08:27:28;6.25;;;3.97;;
73729;SDS011;62036;48.128;16.458;2022-12-13T08:32:20;8.40;;;3.72;;
73729;SDS011;62036;48.128;16.458;2022-12-13T08:34:46;7.38;;;3.22;;
73729;SDS011;62036;48.128;16.458;2022-12-13T08:37:12;8.57;;;3.97;;
73729;SDS011;62036;48.128;16.458;2022-12-13T08:39:39;7.80;;;3.42;;
73729;SDS011;62036;48.128;16.458;2022-12-13T08:42:06;9.02;;;4.25;;
73729;SDS011;62036;48.128;16.458;2022-12-13T08:44:32;7.05;;;3.85;;
73729;SDS011;62036;48.128;16.458;2022-12-13T08:46:58;7.72;;;3.42;;
73729;SDS011;62036;48.128;16.458;2022-12-13T08:49:24;12.38;;;4.45;;
73729;SDS011;62036;48.128;16.458;2022-12-13T08:51:50;7.38;;;3.70;;
73729;SDS011;62036;48.128;16.458;2022-12-13T08:54:16;7.07;;;4.00;;
73729;SDS011;62036;48.128;16.458;2022-12-13T08:56:42;7.93;;;4.22;;
73729;SDS011;62036;48.128;16.458;2022-12-13T08:59:09;9.07;;;3.95;;
73729;SDS011;62036;48.128;16.458;2022-12-13T09:01:35;8.85;;;4.10;;
73729;SDS011;62036;48.128;16.458;2022-12-13T09:04:01;10.68;;;4.15;;
73729;SDS011;62036;48.128;16.458;2022-12-13T09:06:27;11.68;;;4.38;;
73729;SDS011;62036;48.128;16.458;2022-12-13T09:08:53;8.20;;;4.18;;
73729;SDS011;62036;48.128;16.458;2022-12-13T09:11:19;12.30;;;4.28;;
73729;SDS011;62036;48.128;16.458;2022-12-13T09:13:47;12.13;;;4.35;;
73729;SDS011;62036;48.128;16.458;2022-12-13T09:16:14;9.35;;;4.90;;
73729;SDS011;62036;48.128;16.458;2022-12-13T09:18:42;10.63;;;4.40;;
73729;SDS011;62036;48.128;16.458;2022-12-13T09:21:08;10.70;;;4.55;;
73729;SDS011;62036;48.128;16.458;2022-12-13T09:23:35;7.72;;;3.38;;
73729;SDS011;62036;48.128;16.458;2022-12-13T09:26:08;7.53;;;3.55;;
73729;SDS011;62036;48.128;16.458;2022-12-13T09:28:36;10.35;;;4.32;;
73729;SDS011;62036;48.128;16.458;2022-12-13T09:33:37;5.65;;;3.55;;
73729;SDS011;62036;48.128;16.458;2022-12-13T09:36:04;10.15;;;3.13;;
73729;SDS011;62036;48.128;16.458;2022-12-13T09:38:31;12.98;;;4.63;;
73729;SDS011;62036;48.128;16.458;2022-12-13T09:40:57;12.43;;;4.88;;
73729;SDS011;62036;48.128;16.458;2022-12-13T09:43:26;6.28;;;4.00;;
73729;SDS011;62036;48.128;16.458;2022-12-13T09:45:54;5.28;;;2.83;;
73729;SDS011;62036;48.128;16.458;2022-12-13T09:48:20;6.35;;;2.92;;
73729;SDS011;62036;48.128;16.458;2022-12-13T09:50:47;7.13;;;2.55;;
73729;SDS011;62036;48.128;16.458;2022-12-13T09:53:14;5.82;;;3.15;;
73729;SDS011;62036;48.128;16.458;2022-12-13T09:55:43;6.30;;;3.67;;
73729;SDS011;62036;48.128;16.458;2022-12-13T09:58:11;7.38;;;2.88;;
73729;SDS011;62036;48.128;16.458;2022-12-13T10:00:39;7.00;;;3.13;;
73729;SDS011;62036;48.128;16.458;2022-12-13T10:05:32;8.18;;;2.40;;
73729;SDS011;62036;48.128;16.458;2022-12-13T10:10:34;7.43;;;2.30;;
73729;SDS011;62036;48.128;16.458;2022-12-13T10:15:42;4.93;;;2.63;;
73729;SDS011;62036;48.128;16.458;2022-12-13T10:18:12;4.88;;;2.42;;
73729;SDS011;62036;48.128;16.458;2022-12-13T10:20:39;6.30;;;3.28;;
73729;SDS011;62036;48.128;16.458;2022-12-13T10:23:06;5.32;;;3.05;;
73729;SDS011;62036;48.128;16.458;2022-12-13T10:25:42;4.03;;;2.58;;
73729;SDS011;62036;48.128;16.458;2022-12-13T10:28:09;6.80;;;3.40;;
73729;SDS011;62036;48.128;16.458;2022-12-13T10:30:38;5.47;;;3.50;;
73729;SDS011;62036;48.128;16.458;2022-12-13T10:33:05;7.25;;;2.67;;
73729;SDS011;62036;48.128;16.458;2022-12-13T10:35:32;5.13;;;3.15;;
73729;SDS011;62036;48.128;16.458;2022-12-13T10:38:00;6.97;;;4.32;;
73729;SDS011;62036;48.128;16.458;2022-12-13T10:40:29;5.28;;;2.55;;
73729;SDS011;62036;48.128;16.458;2022-12-13T10:43:12;6.28;;;2.60;;
73729;SDS011;62036;48.128;16.458;2022-12-13T10:45:40;4.65;;;2.78;;
73729;SDS011;62036;48.128;16.458;2022-12-13T10:48:10;6.22;;;2.97;;
73729;SDS011;62036;48.128;16.458;2022-12-13T10:50:42;4.35;;;2.50;;
73729;SDS011;62036;48.128;16.458;2022-12-13T10:53:13;8.65;;;3.28;;
73729;SDS011;62036;48.128;16.458;2022-12-13T10:55:43;6.65;;;3.70;;
73729;SDS011;62036;48.128;16.458;2022-12-13T10:58:15;6.93;;;3.95;;
73729;SDS011;62036;48.128;16.458;2022-12-13T11:00:43;11.52;;;3.58;;
73729;SDS011;62036;48.128;16.458;2022-12-13T11:03:30;7.82;;;3.58;;
73729;SDS011;62036;48.128;16.458;2022-12-13T11:06:04;4.65;;;2.60;;
73729;SDS011;62036;48.128;16.458;2022-12-13T11:08:31;7.15;;;3.58;;
73729;SDS011;62036;48.128;16.458;2022-12-13T11:13:29;5.38;;;3.25;;
73729;SDS011;62036;48.128;16.458;2022-12-13T11:15:56;6.38;;;3.03;;
73729;SDS011;62036;48.128;16.458;2022-12-13T11:20:55;6.80;;;3.03;;
73729;SDS011;62036;48.128;16.458;2022-12-13T11:23:32;7.93;;;3.63;;
73729;SDS011;62036;48.128;16.458;2022-12-13T11:26:03;6.03;;;3.03;;
73729;SDS011;62036;48.128;16.458;2022-12-13T11:31:21;6.53;;;2.30;;
73729;SDS011;62036;48.128;16.458;2022-12-13T11:39:11;7.38;;;3.67;;
73729;SDS011;62036;48.128;16.458;2022-12-13T11:41:52;4.78;;;2.75;;
73729;SDS011;62036;48.128;16.458;2022-12-13T11:46:58;5.53;;;3.10;;
73729;SDS011;62036;48.128;16.458;2022-12-13T11:49:41;6.38;;;2.55;;
73729;SDS011;62036;48.128;16.458;2022-12-13T11:58:23;4.72;;;2.85;;
73729;SDS011;62036;48.128;16.458;2022-12-13T12:02:54;6.13;;;3.28;;
73729;SDS011;62036;48.128;16.458;2022-12-13T12:05:34;7.53;;;3.45;;
73729;SDS011;62036;48.128;16.458;2022-12-13T12:08:12;4.65;;;2.90;;
73729;SDS011;62036;48.128;16.458;2022-12-13T12:10:42;6.43;;;3.17;;
73729;SDS011;62036;48.128;16.458;2022-12-13T12:15:42;5.40;;;3.17;;
73729;SDS011;62036;48.128;16.458;2022-12-13T12:18:13;7.32;;;3.38;;
73729;SDS011;62036;48.128;16.458;2022-12-13T12:20:53;6.93;;;2.92;;
73729;SDS011;62036;48.128;16.458;2022-12-13T12:38:46;6.22;;;2.90;;
73729;SDS011;62036;48.128;16.458;2022-12-13T12:54:49;7.70;;;3.42;;
73729;SDS011;62036;48.128;16.458;2022-12-13T13:02:18;6.07;;;3.28;;
73729;SDS011;62036;48.128;16.458;2022-12-13T13:04:57;7.35;;;3.10;;
73729;SDS011;62036;48.128;16.458;2022-12-13T13:07:28;5.93;;;3.20;;
73729;SDS011;62036;48.128;16.458;2022-12-13T13:09:56;7.45;;;3.13;;
73729;SDS011;62036;48.128;16.458;2022-12-13T13:12:23;4.13;;;2.60;;
73729;SDS011;62036;48.128;16.458;2022-12-13T13:14:53;5.20;;;2.90;;
73729;SDS011;62036;48.128;16.458;2022-12-13T13:19:48;4.25;;;2.55;;
73729;SDS011;62036;48.128;16.458;2022-12-13T13:22:26;4.75;;;2.72;;
73729;SDS011;62036;48.128;16.458;2022-12-13T13:27:51;4.85;;;4.00;;
73729;SDS011;62036;48.128;16.458;2022-12-13T13:30:27;6.22;;;3.17;;
73729;SDS011;62036;48.128;16.458;2022-12-13T13:35:46;5.70;;;3.38;;
73729;SDS011;62036;48.128;16.458;2022-12-13T13:40:46;7.03;;;3.80;;
73729;SDS011;62036;48.128;16.458;2022-12-13T13:43:13;6.15;;;3.47;;
73729;SDS011;62036;48.128;16.458;2022-12-13T14:15:37;7.90;;;3.95;;
73729;SDS011;62036;48.128;16.458;2022-12-13T14:31:15;8.50;;;3.95;;
73729;SDS011;62036;48.128;16.458;2022-12-13T14:33:46;7.45;;;3.80;;
73729;SDS011;62036;48.128;16.458;2022-12-13T14:36:14;11.10;;;4.20;;
73729;SDS011;62036;48.128;16.458;2022-12-13T14:38:40;6.18;;;3.30;;
73729;SDS011;62036;48.128;16.458;2022-12-13T14:43:33;7.40;;;3.92;;
73729;SDS011;62036;48.128;16.458;2022-12-13T14:46:04;7.55;;;3.88;;
73729;SDS011;62036;48.128;16.458;2022-12-13T14:48:42;5.80;;;3.30;;
73729;SDS011;62036;48.128;16.458;2022-12-13T14:53:54;8.25;;;4.20;;
73729;SDS011;62036;48.128;16.458;2022-12-13T14:58:56;5.20;;;3.05;;
73729;SDS011;62036;48.128;16.458;2022-12-13T15:01:24;11.57;;;4.22;;
73729;SDS011;62036;48.128;16.458;2022-12-13T15:03:50;8.68;;;4.85;;
73729;SDS011;62036;48.128;16.458;2022-12-13T15:06:17;8.18;;;4.15;;
73729;SDS011;62036;48.128;16.458;2022-12-13T15:08:44;10.50;;;5.07;;
73729;SDS011;62036;48.128;16.458;2022-12-13T15:11:11;8.90;;;4.53;;
73729;SDS011;62036;48.128;16.458;2022-12-13T15:13:58;8.50;;;4.60;;
73729;SDS011;62036;48.128;16.458;2022-12-13T15:16:24;7.53;;;4.35;;
73729;SDS011;62036;48.128;16.458;2022-12-13T15:21:35;7.47;;;3.92;;
73729;SDS011;62036;48.128;16.458;2022-12-13T15:26:28;8.00;;;3.47;;
73729;SDS011;62036;48.128;16.458;2022-12-13T15:28:55;7.68;;;3.72;;
73729;SDS011;62036;48.128;16.458;2022-12-13T15:31:22;9.68;;;3.90;;
73729;SDS011;62036;48.128;16.458;2022-12-13T15:33:51;14.57;;;5.70;;
73729;SDS011;62036;48.128;16.458;2022-12-13T15:41:14;11.10;;;5.57;;
73729;SDS011;62036;48.128;16.458;2022-12-13T15:43:48;13.75;;;6.22;;
73729;SDS011;62036;48.128;16.458;2022-12-13T15:46:23;10.02;;;5.95;;
73729;SDS011;62036;48.128;16.458;2022-12-13T15:48:49;12.48;;;6.53;;
73729;SDS011;62036;48.128;16.458;2022-12-13T15:51:17;11.98;;;6.63;;
73729;SDS011;62036;48.128;16.458;2022-12-13T16:02:19;12.75;;;6.47;;
73729;SDS011;62036;48.128;16.458;2022-12-13T16:07:38;11.88;;;5.97;;
73729;SDS011;62036;48.128;16.458;2022-12-13T16:13:15;10.40;;;4.95;;
73729;SDS011;62036;48.128;16.458;2022-12-13T16:15:48;11.98;;;6.72;;
73729;SDS011;62036;48.128;16.458;2022-12-13T16:18:17;10.98;;;6.40;;
73729;SDS011;62036;48.128;16.458;2022-12-13T16:20:45;10.23;;;5.13;;
73729;SDS011;62036;48.128;16.458;2022-12-13T16:23:11;13.13;;;7.25;;
73729;SDS011;62036;48.128;16.458;2022-12-13T16:25:37;18.00;;;7.68;;
73729;SDS011;62036;48.128;16.458;2022-12-13T16:28:04;19.27;;;7.80;;
73729;SDS011;62036;48.128;16.458;2022-12-13T16:33:15;16.77;;;7.78;;
73729;SDS011;62036;48.128;16.458;2022-12-13T16:35:40;11.77;;;5.78;;
73729;SDS011;62036;48.128;16.458;2022-12-13T16:38:17;15.40;;;5.55;;
73729;SDS011;62036;48.128;16.458;2022-12-13T16:41:09;9.10;;;4.55;;
73729;SDS011;62036;48.128;16.458;2022-12-13T16:43:43;9.23;;;5.18;;
73729;SDS011;62036;48.128;16.458;2022-12-13T16:46:11;11.50;;;5.35;;
73729;SDS011;62036;48.128;16.458;2022-12-13T16:48:38;9.07;;;5.15;;
73729;SDS011;62036;48.128;16.458;2022-12-13T16:53:32;12.80;;;5.47;;
73729;SDS011;62036;48.128;16.458;2022-12-13T16:55:58;12.57;;;5.45;;
73729;SDS011;62036;48.128;16.458;2022-12-13T16:58:24;15.38;;;6.43;;
73729;SDS011;62036;48.128;16.458;2022-12-13T17:00:50;15.00;;;6.35;;
73729;SDS011;62036;48.128;16.458;2022-12-13T17:03:16;12.85;;;6.43;;
73729;SDS011;62036;48.128;16.458;2022-12-13T17:05:46;11.95;;;5.22;;
73729;SDS011;62036;48.128;16.458;2022-12-13T17:08:14;15.13;;;6.20;;
73729;SDS011;62036;48.128;16.458;2022-12-13T17:10:42;17.63;;;6.63;;
73729;SDS011;62036;48.128;16.458;2022-12-13T17:13:11;14.50;;;7.10;;
73729;SDS011;62036;48.128;16.458;2022-12-13T17:18:05;10.48;;;4.57;;
73729;SDS011;62036;48.128;16.458;2022-12-13T17:20:31;11.73;;;5.35;;
73729;SDS011;62036;48.128;16.458;2022-12-13T17:22:57;15.32;;;6.53;;
73729;SDS011;62036;48.128;16.458;2022-12-13T17:25:25;13.57;;;6.22;;
73729;SDS011;62036;48.128;16.458;2022-12-13T17:27:51;12.10;;;5.47;;
73729;SDS011;62036;48.128;16.458;2022-12-13T17:30:17;12.65;;;6.85;;
73729;SDS011;62036;48.128;16.458;2022-12-13T17:32:47;11.43;;;5.68;;
73729;SDS011;62036;48.128;16.458;2022-12-13T17:35:14;12.88;;;5.72;;
73729;SDS011;62036;48.128;16.458;2022-12-13T17:37:40;10.55;;;6.28;;
73729;SDS011;62036;48.128;16.458;2022-12-13T17:40:07;14.93;;;6.20;;
73729;SDS011;62036;48.128;16.458;2022-12-13T17:42:38;12.57;;;6.43;;
73729;SDS011;62036;48.128;16.458;2022-12-13T17:45:04;11.50;;;5.10;;
73729;SDS011;62036;48.128;16.458;2022-12-13T17:47:30;13.32;;;5.50;;
73729;SDS011;62036;48.128;16.458;2022-12-13T17:49:59;15.40;;;5.57;;
73729;SDS011;62036;48.128;16.458;2022-12-13T17:52:25;12.27;;;6.07;;
73729;SDS011;62036;48.128;16.458;2022-12-13T17:54:51;13.35;;;5.45;;
73729;SDS011;62036;48.128;16.458;2022-12-13T17:57:17;9.73;;;5.68;;
73729;SDS011;62036;48.128;16.458;2022-12-13T17:59:43;13.52;;;5.80;;